Time;durP1;ratioP1;P1;durP2;ratioP2;P2;SDS_P1;SDS_P2;PMS_P1;PMS_P2;Temp;Humidity;BMP_temperature;BMP_pressure;BME280_temperature;BME280_humidity;BME280_pressure;Samples;Min_cycle;Max_cycle;Signal;HPM_P1;HPM_P2
2023/04/21 00:00:51;;;;;;;42.97;39.10;;;9.20;99.90;;;;;;5071721;28;20445;-79
2023/04/21 00:03:22;;;;;;;42.53;38.50;;;9.30;99.90;;;;;;5079752;28;20040;-79
2023/04/21 00:05:51;;;;;;;42.92;38.95;;;9.30;99.90;;;;;;5075011;28;20067;-79
2023/04/21 00:08:23;;;;;;;42.47;38.47;;;9.30;99.90;;;;;;5054425;28;20075;-79
2023/04/21 00:10:54;;;;;;;44.58;40.45;;;9.20;99.90;;;;;;5069416;28;20065;-79
2023/04/21 00:13:23;;;;;;;42.72;38.65;;;9.20;99.90;;;;;;5079977;28;20035;-79
2023/04/21 00:15:50;;;;;;;41.90;38.05;;;9.20;99.90;;;;;;5075032;28;20119;-79
2023/04/21 00:18:16;;;;;;;40.25;36.55;;;9.10;99.90;;;;;;5059021;28;20063;-79
2023/04/21 00:20:45;;;;;;;41.05;37.38;;;9.10;99.90;;;;;;5070739;28;20048;-79
2023/04/21 00:23:11;;;;;;;40.63;36.67;;;9.20;99.90;;;;;;5095872;28;20380;-79
2023/04/21 00:25:37;;;;;;;40.95;37.17;;;9.20;99.90;;;;;;5075705;28;20052;-79
2023/04/21 00:28:03;;;;;;;40.70;36.72;;;9.20;99.90;;;;;;5077830;28;20032;-79
2023/04/21 00:30:31;;;;;;;39.83;35.97;;;9.10;99.90;;;;;;5058976;28;20399;-79
2023/04/21 00:33:03;;;;;;;40.20;36.38;;;9.10;99.90;;;;;;5058606;28;20515;-79
2023/04/21 00:35:35;;;;;;;40.00;36.22;;;9.10;99.90;;;;;;5060928;28;20118;-79
2023/04/21 00:38:01;;;;;;;40.50;36.67;;;9.00;99.90;;;;;;5062122;28;20081;-79
2023/04/21 00:40:29;;;;;;;40.25;36.33;;;9.00;99.90;;;;;;5066708;28;20056;-79
2023/04/21 00:42:55;;;;;;;40.63;36.88;;;8.90;99.90;;;;;;5058299;28;20051;-79
2023/04/21 00:45:23;;;;;;;41.60;37.58;;;8.90;99.90;;;;;;5058570;28;20416;-79
2023/04/21 00:47:49;;;;;;;39.67;35.83;;;8.90;99.90;;;;;;5061004;28;20496;-79
2023/04/21 00:50:17;;;;;;;39.45;35.65;;;8.80;99.90;;;;;;5069888;28;20043;-79
2023/04/21 00:52:57;;;;;;;39.95;36.25;;;8.90;99.90;;;;;;5079554;28;20043;-79
2023/04/21 00:55:23;;;;;;;37.40;33.92;;;8.80;99.90;;;;;;5078788;28;20043;-79
2023/04/21 00:57:55;;;;;;;37.17;33.35;;;8.80;99.90;;;;;;5060377;28;20061;-79
2023/04/21 01:00:23;;;;;;;36.17;32.70;;;8.90;99.90;;;;;;5069691;28;20510;-79
2023/04/21 01:02:49;;;;;;;36.58;32.78;;;8.80;99.90;;;;;;5078380;28;20419;-79
2023/04/21 01:05:18;;;;;;;36.80;33.33;;;8.80;99.90;;;;;;5085607;28;20038;-79
2023/04/21 01:07:44;;;;;;;36.08;32.67;;;8.80;99.90;;;;;;5052371;28;20061;-79
2023/04/21 01:10:10;;;;;;;33.97;30.58;;;8.70;99.90;;;;;;5069136;28;20107;-79
2023/04/21 01:12:45;;;;;;;34.90;31.63;;;8.70;99.90;;;;;;5058479;28;20066;-79
2023/04/21 01:15:24;;;;;;;35.78;32.38;;;8.80;99.90;;;;;;5057726;28;20500;-79
2023/04/21 01:17:52;;;;;;;34.75;31.25;;;8.80;99.90;;;;;;5056513;28;20060;-79
2023/04/21 01:20:18;;;;;;;34.03;30.83;;;8.80;99.90;;;;;;5064911;28;20567;-79
2023/04/21 01:22:44;;;;;;;32.55;29.65;;;8.80;99.90;;;;;;5057136;28;20140;-79
2023/04/21 01:25:13;;;;;;;33.55;30.10;;;8.80;99.90;;;;;;5065059;28;20122;-79
2023/04/21 01:27:41;;;;;;;31.10;28.10;;;8.80;99.90;;;;;;5058106;28;20115;-79
2023/04/21 01:30:11;;;;;;;32.65;29.33;;;8.80;99.90;;;;;;5065323;28;20081;-79
2023/04/21 01:32:37;;;;;;;29.83;26.85;;;8.80;99.90;;;;;;5068195;28;20032;-79
2023/04/21 01:35:08;;;;;;;30.20;27.05;;;8.80;99.90;;;;;;5074112;28;20580;-79
2023/04/21 01:37:39;;;;;;;31.52;28.35;;;8.80;99.90;;;;;;5055965;28;20051;-79
2023/04/21 01:40:08;;;;;;;30.65;27.55;;;8.90;99.90;;;;;;5054761;28;20040;-79
2023/04/21 01:42:39;;;;;;;29.35;26.35;;;8.90;99.90;;;;;;5044375;28;20071;-79
2023/04/21 01:45:05;;;;;;;29.67;26.88;;;8.90;99.90;;;;;;5037704;28;20140;-79
2023/04/21 01:47:37;;;;;;;30.45;27.48;;;8.90;99.90;;;;;;5051140;28;20044;-79
2023/04/21 01:50:06;;;;;;;29.40;26.50;;;8.90;99.90;;;;;;5056182;28;20089;-79
2023/04/21 01:52:34;;;;;;;28.08;25.45;;;9.00;99.90;;;;;;5060633;28;20119;-79
2023/04/21 01:55:04;;;;;;;28.38;25.58;;;8.90;99.90;;;;;;5054496;28;20051;-79
2023/04/21 01:57:40;;;;;;;28.27;25.50;;;9.00;99.90;;;;;;5046956;28;20496;-79
2023/04/21 02:00:10;;;;;;;29.30;26.10;;;9.00;99.90;;;;;;5072967;28;20075;-79
2023/04/21 02:02:38;;;;;;;28.55;25.55;;;9.00;99.90;;;;;;5065094;28;20399;-79
2023/04/21 02:05:07;;;;;;;27.63;24.98;;;8.90;99.90;;;;;;5049163;28;20048;-80
2023/04/21 02:07:32;;;;;;;28.35;25.60;;;9.00;99.90;;;;;;5068417;28;20038;-79
2023/04/21 02:09:58;;;;;;;28.00;25.15;;;9.00;99.90;;;;;;5071571;28;20036;-78
2023/04/21 02:12:24;;;;;;;27.17;24.50;;;9.00;99.90;;;;;;5057834;28;20495;-78
2023/04/21 02:14:50;;;;;;;27.10;24.55;;;9.00;99.90;;;;;;5087389;28;20458;-78
2023/04/21 02:17:16;;;;;;;27.15;24.55;;;9.10;99.90;;;;;;5091038;28;20071;-79
2023/04/21 02:19:48;;;;;;;26.83;24.23;;;9.00;99.90;;;;;;5055321;28;20065;-79
2023/04/21 02:22:16;;;;;;;26.20;23.75;;;9.10;99.90;;;;;;5079012;28;20119;-78
2023/04/21 02:24:42;;;;;;;26.58;24.08;;;9.10;99.90;;;;;;5067257;28;20444;-78
2023/04/21 02:27:10;;;;;;;26.08;23.40;;;9.10;99.90;;;;;;5062249;28;20040;-78
2023/04/21 02:29:40;;;;;;;26.60;24.02;;;9.10;99.90;;;;;;5073800;28;20040;-78
2023/04/21 02:32:09;;;;;;;25.48;23.02;;;9.10;99.90;;;;;;5100394;28;20111;-78
2023/04/21 02:34:40;;;;;;;25.92;23.40;;;9.10;99.90;;;;;;5094541;28;20032;-78
2023/04/21 02:37:07;;;;;;;25.42;23.02;;;9.20;99.90;;;;;;5088378;28;20497;-78
2023/04/21 02:39:32;;;;;;;24.95;22.60;;;9.20;99.90;;;;;;5086793;28;20043;-78
2023/04/21 02:42:06;;;;;;;24.13;21.92;;;9.20;99.90;;;;;;5084531;28;20036;-78
2023/04/21 02:44:32;;;;;;;25.20;22.75;;;9.20;99.90;;;;;;5079678;28;20051;-78
2023/04/21 02:46:57;;;;;;;24.70;22.45;;;9.20;99.90;;;;;;5094205;28;20043;-78
2023/04/21 02:49:23;;;;;;;25.98;23.00;;;9.10;99.90;;;;;;5077270;28;20119;-78
2023/04/21 02:51:49;;;;;;;25.60;23.20;;;9.10;99.90;;;;;;5109726;28;20120;-78
2023/04/21 02:54:17;;;;;;;24.83;22.52;;;9.00;99.90;;;;;;5052392;28;20044;-78
2023/04/21 02:56:45;;;;;;;24.92;22.38;;;9.00;99.90;;;;;;5059093;28;20503;-78
2023/04/21 02:59:15;;;;;;;24.20;21.83;;;9.00;99.90;;;;;;5074146;28;20036;-78
2023/04/21 03:01:48;;;;;;;25.60;23.20;;;9.00;99.90;;;;;;5075557;28;20039;-78
2023/04/21 03:04:16;;;;;;;26.77;24.20;;;9.00;99.90;;;;;;5065049;28;20435;-78
2023/04/21 03:06:44;;;;;;;24.75;22.40;;;9.00;99.90;;;;;;5068110;28;20442;-78
2023/04/21 03:09:10;;;;;;;25.55;23.08;;;8.90;99.90;;;;;;5072131;28;20073;-78
2023/04/21 03:11:36;;;;;;;26.55;23.90;;;8.90;99.90;;;;;;5074074;28;20040;-78
2023/04/21 03:14:01;;;;;;;24.75;22.25;;;8.80;99.90;;;;;;5073995;28;20032;-78
2023/04/21 03:16:28;;;;;;;23.98;21.58;;;8.90;99.90;;;;;;5069286;28;20051;-78
2023/04/21 03:18:54;;;;;;;24.02;21.48;;;9.00;99.90;;;;;;5089278;28;20040;-78
2023/04/21 03:21:19;;;;;;;22.77;20.58;;;9.10;99.90;;;;;;5072519;28;20122;-78
2023/04/21 03:23:45;;;;;;;22.70;20.67;;;9.00;99.90;;;;;;5081896;28;20469;-78
2023/04/21 03:26:13;;;;;;;22.48;20.27;;;9.10;99.90;;;;;;5070045;28;20036;-78
2023/04/21 03:28:44;;;;;;;22.17;20.17;;;9.20;99.90;;;;;;5079443;28;20040;-78
2023/04/21 03:31:13;;;;;;;21.83;19.75;;;9.30;99.90;;;;;;5072077;28;20035;-78
2023/04/21 03:33:43;;;;;;;22.20;20.00;;;9.20;99.90;;;;;;5065701;28;20044;-78
2023/04/21 03:36:12;;;;;;;21.98;19.75;;;9.30;99.90;;;;;;5110028;28;20048;-78
2023/04/21 03:38:37;;;;;;;22.50;20.15;;;9.40;99.90;;;;;;5052659;28;20040;-78
2023/04/21 03:41:03;;;;;;;21.95;19.80;;;9.50;99.90;;;;;;5056729;28;20093;-78
2023/04/21 03:43:37;;;;;;;22.33;19.65;;;9.40;99.90;;;;;;5044191;28;20032;-78
2023/04/21 03:46:16;;;;;;;19.80;17.90;;;9.40;99.90;;;;;;5073152;28;20075;-78
2023/04/21 03:48:45;;;;;;;20.35;18.30;;;9.50;99.90;;;;;;5065080;28;20500;-78
2023/04/21 03:51:11;;;;;;;22.05;19.10;;;9.50;99.90;;;;;;5071924;28;20038;-78
2023/04/21 03:53:39;;;;;;;20.10;18.10;;;9.50;99.90;;;;;;5070137;28;20032;-78
2023/04/21 03:56:07;;;;;;;20.10;18.10;;;9.60;99.90;;;;;;5069700;28;20032;-78
2023/04/21 03:58:36;;;;;;;18.58;16.67;;;9.60;99.90;;;;;;5096065;28;20051;-78
2023/04/21 04:01:11;;;;;;;21.00;18.20;;;9.60;99.90;;;;;;5079748;28;20161;-78
2023/04/21 04:03:42;;;;;;;19.50;17.60;;;9.60;99.90;;;;;;5083401;28;20040;-78
2023/04/21 04:06:10;;;;;;;18.42;16.70;;;9.50;99.90;;;;;;5069651;28;20150;-78
2023/04/21 04:08:41;;;;;;;19.77;17.77;;;9.60;99.90;;;;;;5070644;28;20544;-78
2023/04/21 04:11:09;;;;;;;20.95;18.23;;;9.60;99.90;;;;;;5091855;28;20484;-78
2023/04/21 04:13:37;;;;;;;21.30;19.05;;;9.50;99.90;;;;;;5062299;28;20039;-78
2023/04/21 04:16:02;;;;;;;19.20;17.40;;;9.40;99.90;;;;;;5067783;28;20036;-77
2023/04/21 04:18:34;;;;;;;18.67;16.90;;;9.40;99.90;;;;;;5061367;28;20036;-78
2023/04/21 04:21:05;;;;;;;19.50;17.50;;;9.30;99.90;;;;;;5073135;28;20097;-78
2023/04/21 04:23:31;;;;;;;19.10;17.15;;;9.40;99.90;;;;;;5056257;28;20035;-78
2023/04/21 04:25:57;;;;;;;20.10;17.02;;;9.50;99.90;;;;;;5050577;28;20028;-78
2023/04/21 04:28:23;;;;;;;19.23;17.30;;;9.50;99.90;;;;;;5062786;28;20071;-78
2023/04/21 04:30:51;;;;;;;19.95;17.95;;;9.50;99.90;;;;;;5072661;28;20032;-78
2023/04/21 04:33:17;;;;;;;19.45;17.63;;;9.60;99.90;;;;;;5064692;28;20387;-78
2023/04/21 04:35:48;;;;;;;20.10;18.10;;;9.50;99.90;;;;;;5058662;28;20120;-78
2023/04/21 04:38:16;;;;;;;19.30;17.27;;;9.40;99.90;;;;;;5057652;28;20093;-78
2023/04/21 04:40:42;;;;;;;20.45;18.42;;;9.50;99.90;;;;;;5078301;28;20090;-78
2023/04/21 04:43:09;;;;;;;19.98;17.98;;;9.50;99.90;;;;;;5092516;28;20083;-78
2023/04/21 04:45:36;;;;;;;19.58;17.45;;;9.50;99.90;;;;;;5059513;28;20044;-78
2023/04/21 04:48:05;;;;;;;19.15;17.15;;;9.50;99.90;;;;;;5059578;28;20556;-78
2023/04/21 04:50:30;;;;;;;20.23;17.85;;;9.50;99.90;;;;;;5065449;28;20039;-77
2023/04/21 04:52:56;;;;;;;20.65;17.58;;;9.50;99.90;;;;;;5095676;28;20109;-78
2023/04/21 04:55:22;;;;;;;19.70;17.15;;;9.50;99.90;;;;;;5072904;28;20044;-78
2023/04/21 04:57:48;;;;;;;18.77;16.83;;;9.50;99.90;;;;;;5078575;28;20044;-78
2023/04/21 05:00:14;;;;;;;19.27;17.48;;;9.50;99.90;;;;;;5099013;28;20124;-78
2023/04/21 05:02:42;;;;;;;19.48;17.48;;;9.50;99.90;;;;;;5063457;28;20038;-77
2023/04/21 05:05:11;;;;;;;20.33;17.88;;;9.50;99.90;;;;;;5061807;28;20036;-77
2023/04/21 05:07:36;;;;;;;19.77;17.90;;;9.60;99.90;;;;;;5072879;28;20114;-77
2023/04/21 05:10:03;;;;;;;19.10;17.30;;;9.50;99.90;;;;;;5078006;28;20071;-77
2023/04/21 05:12:34;;;;;;;19.55;17.58;;;9.50;99.90;;;;;;5083442;28;20091;-78
2023/04/21 05:15:00;;;;;;;20.55;18.42;;;9.50;99.90;;;;;;5079518;28;20036;-78
2023/04/21 05:17:27;;;;;;;18.73;16.92;;;9.50;99.90;;;;;;5076349;28;20036;-78
2023/04/21 05:19:56;;;;;;;20.10;18.10;;;9.50;99.90;;;;;;5058941;28;20051;-78
2023/04/21 05:22:26;;;;;;;19.52;17.50;;;9.60;99.90;;;;;;5057199;28;20454;-77
2023/04/21 05:25:02;;;;;;;19.05;17.25;;;9.60;99.90;;;;;;5065258;28;20040;-78
2023/04/21 05:27:30;;;;;;;19.63;17.67;;;9.60;99.90;;;;;;5075768;28;20040;-78
2023/04/21 05:30:01;;;;;;;18.70;16.90;;;9.60;99.90;;;;;;5059796;28;20036;-77
2023/04/21 05:32:29;;;;;;;19.30;17.17;;;9.60;99.90;;;;;;5067282;28;20110;-78
2023/04/21 05:35:00;;;;;;;18.38;16.58;;;9.70;99.90;;;;;;5070384;28;20031;-78
2023/04/21 05:37:28;;;;;;;20.02;17.80;;;9.70;99.90;;;;;;5078691;28;20035;-78
2023/04/21 05:39:57;;;;;;;18.83;17.02;;;9.80;99.90;;;;;;5078744;28;20470;-78
2023/04/21 05:42:25;;;;;;;18.70;16.95;;;9.80;99.90;;;;;;5054927;28;20495;-78
2023/04/21 05:44:51;;;;;;;19.80;16.08;;;9.80;99.90;;;;;;5057593;28;20065;-76
2023/04/21 05:47:20;;;;;;;18.30;16.60;;;9.90;99.90;;;;;;5048958;28;20029;-74
2023/04/21 05:49:48;;;;;;;18.02;16.17;;;9.90;99.90;;;;;;5070984;28;20043;-77
2023/04/21 05:52:20;;;;;;;18.70;16.38;;;9.90;99.90;;;;;;5057644;28;20041;-77
2023/04/21 05:54:58;;;;;;;19.13;16.98;;;10.00;99.90;;;;;;5067811;28;20123;-77
2023/04/21 05:58:00;;;;;;;;;;;;;;;;;;;;;
2023/04/21 06:00:45;;;;;;;17.60;15.70;;;10.10;99.90;;;;;;5065050;28;20074;-77
2023/04/21 06:03:24;;;;;;;20.13;16.83;;;10.10;99.90;;;;;;5072985;28;20040;-77
2023/04/21 06:05:58;;;;;;;18.40;16.65;;;10.10;99.90;;;;;;5073506;28;20044;-77
2023/04/21 06:08:24;;;;;;;19.13;17.10;;;10.10;99.90;;;;;;5049614;28;20299;-77
2023/04/21 06:11:14;;;;;;;18.52;16.58;;;10.10;99.90;;;;;;5046342;28;20137;-78
2023/04/21 06:13:48;;;;;;;18.50;16.60;;;10.10;99.90;;;;;;5036742;28;20119;-77
2023/04/21 06:16:20;;;;;;;17.27;15.63;;;10.10;99.90;;;;;;5036455;28;20047;-77
2023/04/21 06:18:51;;;;;;;18.58;16.77;;;10.10;99.90;;;;;;5037217;28;20465;-76
2023/04/21 06:21:24;;;;;;;21.23;17.95;;;10.10;99.90;;;;;;5047178;28;20047;-76
2023/04/21 06:23:58;;;;;;;18.35;16.42;;;10.10;99.90;;;;;;5056593;28;20508;-77
2023/04/21 06:26:50;;;;;;;17.75;16.05;;;10.20;99.90;;;;;;5062280;28;20036;-77
2023/04/21 06:29:31;;;;;;;18.50;16.60;;;10.10;99.90;;;;;;5033751;28;20385;-76
2023/04/21 06:31:57;;;;;;;18.45;16.50;;;10.30;99.90;;;;;;5054313;28;20485;-77
2023/04/21 06:34:30;;;;;;;17.95;16.15;;;10.40;99.90;;;;;;5056748;28;20051;-77
2023/04/21 06:36:59;;;;;;;19.65;16.88;;;10.40;99.90;;;;;;5060941;28;20080;-77
2023/04/21 06:39:31;;;;;;;17.73;16.02;;;10.50;99.90;;;;;;5056665;28;20047;-77
2023/04/21 06:42:00;;;;;;;18.75;16.88;;;10.50;99.90;;;;;;5072553;28;20089;-77
2023/04/21 06:44:31;;;;;;;18.05;16.27;;;10.50;99.90;;;;;;5047697;28;20527;-77
2023/04/21 06:46:57;;;;;;;17.45;15.65;;;10.60;99.90;;;;;;5056475;28;20032;-76
2023/04/21 06:49:23;;;;;;;18.33;16.50;;;10.60;99.90;;;;;;5056149;28;20036;-75
2023/04/21 06:51:51;;;;;;;17.73;15.95;;;10.60;99.90;;;;;;5055668;28;20523;-75
2023/04/21 06:54:19;;;;;;;18.08;16.25;;;10.60;99.90;;;;;;5064456;28;20036;-75
2023/04/21 06:56:51;;;;;;;19.33;16.00;;;10.70;99.90;;;;;;5072902;28;20068;-74
2023/04/21 06:59:22;;;;;;;16.90;15.20;;;10.70;99.90;;;;;;5053178;28;20040;-74
2023/04/21 07:01:53;;;;;;;17.17;15.55;;;10.80;99.90;;;;;;5052841;28;20036;-74
2023/04/21 07:04:19;;;;;;;17.30;15.63;;;10.90;99.90;;;;;;5049765;28;20093;-74
2023/04/21 07:06:48;;;;;;;18.83;16.85;;;10.90;99.90;;;;;;5067059;28;20085;-74
2023/04/21 07:09:13;;;;;;;18.52;16.52;;;10.90;99.90;;;;;;5056340;28;20407;-74
2023/04/21 07:11:39;;;;;;;18.33;16.73;;;11.00;99.90;;;;;;5073006;28;20040;-74
2023/04/21 07:14:05;;;;;;;17.73;15.88;;;11.10;99.90;;;;;;5056298;28;20112;-74
2023/04/21 07:16:31;;;;;;;16.70;15.10;;;11.20;99.90;;;;;;5051592;28;20082;-74
2023/04/21 07:18:57;;;;;;;16.33;14.65;;;11.30;99.90;;;;;;5075511;28;20503;-75
2023/04/21 07:21:23;;;;;;;17.17;14.63;;;11.40;99.90;;;;;;5083756;28;20055;-74
2023/04/21 07:23:49;;;;;;;17.02;15.38;;;11.50;99.90;;;;;;5017104;28;20554;-74
2023/04/21 07:26:14;;;;;;;17.02;15.38;;;11.50;99.90;;;;;;5034318;28;20120;-74
2023/04/21 07:28:40;;;;;;;16.25;14.65;;;11.60;99.90;;;;;;5040076;28;20049;-75
2023/04/21 07:31:08;;;;;;;16.33;14.65;;;11.70;99.90;;;;;;5044523;28;20036;-76
2023/04/21 07:33:37;;;;;;;16.98;15.32;;;11.80;99.90;;;;;;5019514;28;20037;-77
2023/04/21 07:36:08;;;;;;;16.25;14.75;;;11.80;99.90;;;;;;5035551;28;20045;-76
2023/04/21 07:38:33;;;;;;;16.65;14.90;;;12.00;99.90;;;;;;5019953;28;20071;-76
2023/04/21 07:41:01;;;;;;;16.85;14.50;;;12.10;99.90;;;;;;5019361;28;20053;-76
2023/04/21 07:43:29;;;;;;;16.42;14.82;;;12.20;99.90;;;;;;5018909;28;20398;-76
2023/04/21 07:46:01;;;;;;;16.77;15.07;;;12.20;99.90;;;;;;5019005;28;20124;-77
2023/04/21 07:48:27;;;;;;;19.83;15.13;;;12.20;99.90;;;;;;5019538;28;20037;-77
2023/04/21 07:50:57;;;;;;;16.92;15.38;;;12.30;99.90;;;;;;5019476;28;20099;-76
2023/04/21 07:53:38;;;;;;;17.27;15.57;;;12.50;99.90;;;;;;5019715;28;20493;-77
2023/04/21 07:56:15;;;;;;;17.17;14.70;;;12.50;99.90;;;;;;5035522;28;20037;-77
2023/04/21 07:58:44;;;;;;;16.67;14.90;;;12.60;99.90;;;;;;5019068;28;20049;-76
2023/04/21 08:01:27;;;;;;;16.98;15.13;;;12.50;99.90;;;;;;5019930;28;20051;-77
2023/04/21 08:04:01;;;;;;;16.98;15.15;;;12.60;99.90;;;;;;5035737;28;20401;-76
2023/04/21 08:06:31;;;;;;;17.00;15.30;;;12.70;99.90;;;;;;5019393;28;20036;-76
2023/04/21 08:09:17;;;;;;;16.73;15.00;;;12.70;99.90;;;;;;5052926;28;20563;-76
2023/04/21 08:11:46;;;;;;;15.63;14.13;;;12.80;99.90;;;;;;5018632;28;20508;-76
2023/04/21 08:14:15;;;;;;;18.40;15.82;;;12.80;99.90;;;;;;5018852;28;20040;-77
2023/04/21 08:16:41;;;;;;;18.05;16.10;;;12.90;99.90;;;;;;5018942;28;20045;-76
2023/04/21 08:19:12;;;;;;;19.25;15.70;;;12.90;99.90;;;;;;5035399;28;20049;-77
2023/04/21 08:21:41;;;;;;;16.27;14.68;;;13.00;99.90;;;;;;5019744;28;20299;-76
2023/04/21 08:24:12;;;;;;;19.17;15.05;;;13.20;99.90;;;;;;4999921;28;20045;-77
2023/04/21 08:26:43;;;;;;;17.58;15.68;;;13.20;99.90;;;;;;5019301;28;20037;-77
2023/04/21 08:29:18;;;;;;;16.85;15.05;;;13.50;99.90;;;;;;5018949;28;20041;-77
2023/04/21 08:31:46;;;;;;;17.90;14.75;;;13.80;99.90;;;;;;5037820;28;20041;-76
2023/04/21 08:34:12;;;;;;;16.77;14.25;;;14.20;99.90;;;;;;5037440;28;20037;-75
2023/04/21 08:36:41;;;;;;;15.45;13.90;;;14.80;99.90;;;;;;5031056;28;20163;-77
2023/04/21 08:39:25;;;;;;;15.60;13.82;;;15.40;99.90;;;;;;5056932;28;20052;-75
2023/04/21 08:41:52;;;;;;;16.55;14.50;;;15.90;99.90;;;;;;5033006;28;20170;-76
2023/04/21 08:44:19;;;;;;;15.50;13.77;;;15.80;99.90;;;;;;5019441;28;20065;-76
2023/04/21 08:46:45;;;;;;;15.75;14.18;;;15.80;99.90;;;;;;5027345;28;20392;-76
2023/04/21 08:49:20;;;;;;;18.20;14.73;;;15.60;99.90;;;;;;5028710;28;20044;-76
2023/04/21 08:51:46;;;;;;;17.42;15.30;;;15.60;99.90;;;;;;5018829;28;20041;-76
2023/04/21 08:54:14;;;;;;;15.63;14.10;;;15.50;99.90;;;;;;5045903;28;20041;-76
2023/04/21 08:57:15;;;;;;;16.58;14.88;;;15.60;99.90;;;;;;5026040;28;20443;-78
2023/04/21 08:59:44;;;;;;;15.63;14.05;;;15.30;99.90;;;;;;5042713;28;20055;-78
2023/04/21 09:02:25;;;;;;;18.75;15.07;;;15.20;99.90;;;;;;5025701;28;20436;-78
2023/04/21 09:04:58;;;;;;;16.05;14.35;;;15.10;99.90;;;;;;5025358;28;20126;-78
2023/04/21 09:08:07;;;;;;;17.55;15.70;;;15.10;99.90;;;;;;5043707;28;20040;-78
2023/04/21 09:10:52;;;;;;;16.30;14.63;;;15.30;99.90;;;;;;5031854;28;20033;-78
2023/04/21 09:13:22;;;;;;;17.35;14.50;;;15.70;99.90;;;;;;5025565;28;20032;-78
2023/04/21 09:15:51;;;;;;;15.43;13.18;;;15.70;99.90;;;;;;5033932;28;20047;-78
2023/04/21 09:18:35;;;;;;;15.82;13.90;;;16.00;99.90;;;;;;5033214;28;20044;-78
2023/04/21 09:21:16;;;;;;;15.93;14.25;;;16.00;99.90;;;;;;5030461;28;20036;-78
2023/04/21 09:23:55;;;;;;;17.73;14.18;;;16.00;99.90;;;;;;5028510;28;20047;-78
2023/04/21 09:26:24;;;;;;;16.50;14.68;;;16.20;99.90;;;;;;5047854;28;20076;-78
2023/04/21 09:28:52;;;;;;;16.38;14.25;;;16.60;99.90;;;;;;5031637;28;20034;-77
2023/04/21 09:31:20;;;;;;;16.52;13.65;;;17.10;99.90;;;;;;5023417;28;20056;-77
2023/04/21 09:34:24;;;;;;;15.60;14.00;;;17.50;99.90;;;;;;5053334;28;20041;-77
2023/04/21 09:37:03;;;;;;;17.10;14.82;;;17.60;93.80;;;;;;5031848;28;20071;-78
2023/04/21 09:39:48;;;;;;;16.17;14.07;;;17.40;99.90;;;;;;5034443;28;20048;-74
2023/04/21 09:42:19;;;;;;;19.70;13.55;;;17.40;99.90;;;;;;5028151;28;20051;-75
2023/04/21 09:44:52;;;;;;;16.52;14.05;;;17.80;97.50;;;;;;5041126;28;20040;-75
2023/04/21 09:47:32;;;;;;;18.23;16.23;;;18.10;95.10;;;;;;5033954;28;20068;-76
2023/04/21 09:50:01;;;;;;;14.88;13.27;;;18.20;97.90;;;;;;5020689;28;20036;-76
2023/04/21 09:52:32;;;;;;;15.07;13.48;;;18.10;87.40;;;;;;5018571;28;20032;-77
2023/04/21 09:55:07;;;;;;;16.50;14.75;;;17.70;88.70;;;;;;5029605;28;20074;-79
2023/04/21 09:57:48;;;;;;;17.75;15.10;;;17.30;96.50;;;;;;5037800;28;20048;-78
2023/04/21 10:00:31;;;;;;;16.95;15.15;;;17.30;96.30;;;;;;5027264;28;20041;-78
2023/04/21 10:03:22;;;;;;;16.90;15.25;;;17.50;96.30;;;;;;5039607;28;20086;-77
2023/04/21 10:06:14;;;;;;;18.77;15.40;;;17.50;90.80;;;;;;4999376;28;20037;-77
2023/04/21 10:09:04;;;;;;;16.90;15.30;;;17.20;97.40;;;;;;5015828;28;22174;-77
2023/04/21 10:11:56;;;;;;;16.88;15.38;;;17.00;99.90;;;;;;5030922;28;20461;-77
2023/04/21 10:14:42;;;;;;;19.73;17.73;;;17.20;99.90;;;;;;5002637;28;20098;-78
2023/04/21 10:17:14;;;;;;;19.65;17.58;;;17.20;99.90;;;;;;5036119;28;20048;-77
2023/04/21 10:19:56;;;;;;;16.48;14.95;;;17.50;99.90;;;;;;5031529;28;20135;-77
2023/04/21 10:22:30;;;;;;;18.05;16.10;;;17.70;99.90;;;;;;5020662;28;20502;-77
2023/04/21 10:25:46;;;;;;;18.50;16.58;;;17.70;99.30;;;;;;5018741;28;20033;-80
2023/04/21 10:29:20;;;;;;;17.40;15.25;;;17.80;99.90;;;;;;5043424;28;20043;-79
2023/04/21 10:33:20;;;;;;;;;;;;;;;;;;;;;
2023/04/21 10:40:31;;;;;;;;;;;;;;;;;;;;;
2023/04/21 10:43:43;;;;;;;18.70;16.40;;;16.90;98.30;;;;;;4929841;23;20096;-77
2023/04/21 10:46:31;;;;;;;18.00;16.13;;;16.50;99.90;;;;;;5047520;28;20053;-77
2023/04/21 10:49:32;;;;;;;18.88;17.05;;;16.20;99.90;;;;;;5045785;28;20041;-77
2023/04/21 10:52:08;;;;;;;19.45;17.42;;;16.10;99.90;;;;;;5035445;28;20075;-78
2023/04/21 10:55:14;;;;;;;18.98;16.90;;;15.90;99.90;;;;;;5036938;28;20456;-76
2023/04/21 10:58:15;;;;;;;17.88;16.05;;;16.10;99.90;;;;;;5022116;28;20049;-77
2023/04/21 11:01:04;;;;;;;19.05;17.05;;;16.20;99.90;;;;;;5046309;28;20204;-77
2023/04/21 11:03:38;;;;;;;18.42;16.60;;;16.20;99.90;;;;;;5037181;28;20049;-77
2023/04/21 11:06:32;;;;;;;;;;;;;;;;;;;;;
2023/04/21 11:12:53;;;;;;;19.27;17.25;;;16.10;99.90;;;;;;5050018;28;20052;-78
2023/04/21 11:15:26;;;;;;;19.85;17.85;;;16.30;99.90;;;;;;5049281;28;20052;-77
2023/04/21 11:17:57;;;;;;;19.27;17.05;;;16.50;99.90;;;;;;5035514;28;20087;-77
2023/04/21 11:20:56;;;;;;;19.10;17.17;;;16.70;99.90;;;;;;5052858;28;20127;-77
2023/04/21 11:23:30;;;;;;;19.50;17.40;;;17.00;99.90;;;;;;5042530;28;20072;-78
2023/04/21 11:25:58;;;;;;;18.83;16.90;;;17.00;99.90;;;;;;5053010;28;20072;-77
2023/04/21 11:29:18;;;;;;;20.00;17.27;;;17.20;99.90;;;;;;5054317;28;20477;-78
2023/04/21 11:32:00;;;;;;;18.75;16.95;;;17.30;99.10;;;;;;4967241;28;20049;-78
2023/04/21 11:34:32;;;;;;;19.77;17.92;;;17.10;99.90;;;;;;5016645;28;20050;-78
2023/04/21 11:37:11;;;;;;;19.33;17.42;;;17.00;99.90;;;;;;5032838;28;20062;-78
2023/04/21 11:39:41;;;;;;;19.45;17.65;;;17.10;99.90;;;;;;5038676;28;20094;-78
2023/04/21 11:42:13;;;;;;;20.33;18.38;;;17.20;99.90;;;;;;5035443;28;20111;-78
2023/04/21 11:45:02;;;;;;;20.27;18.25;;;17.30;99.90;;;;;;5034878;28;20044;-78
2023/04/21 11:47:43;;;;;;;19.58;17.63;;;17.40;99.90;;;;;;5051943;28;20049;-78
2023/04/21 11:50:33;;;;;;;21.45;19.25;;;17.80;99.90;;;;;;5037347;28;20037;-77
2023/04/21 11:53:10;;;;;;;19.58;17.67;;;18.10;99.90;;;;;;5035955;28;20442;-78
2023/04/21 11:55:50;;;;;;;20.77;18.67;;;18.70;99.90;;;;;;5036370;28;20102;-78
2023/04/21 11:58:19;;;;;;;20.08;18.23;;;19.20;99.90;;;;;;5052434;28;20039;-78
2023/04/21 12:01:08;;;;;;;20.98;18.63;;;19.50;99.90;;;;;;5034625;28;20049;-78
2023/04/21 12:03:55;;;;;;;20.52;18.73;;;19.60;90.90;;;;;;5051659;28;20060;-78
2023/04/21 12:06:35;;;;;;;21.90;19.00;;;19.50;87.30;;;;;;5033432;28;20053;-78
2023/04/21 12:09:27;;;;;;;20.88;18.98;;;19.30;90.80;;;;;;5051517;28;20077;-78
2023/04/21 12:12:18;;;;;;;20.10;18.05;;;19.10;89.90;;;;;;5035233;28;20044;-78
2023/04/21 12:15:00;;;;;;;20.27;18.27;;;18.90;92.90;;;;;;5031982;28;20436;-78
2023/04/21 12:17:48;;;;;;;21.83;18.08;;;18.90;95.50;;;;;;5046063;28;20044;-78
2023/04/21 12:20:25;;;;;;;21.40;19.45;;;18.90;92.60;;;;;;5035665;28;20553;-78
2023/04/21 12:22:53;;;;;;;20.88;18.98;;;19.00;95.00;;;;;;5034976;28;20508;-78
2023/04/21 12:25:24;;;;;;;21.27;19.38;;;18.90;94.90;;;;;;5035233;28;20134;-78
2023/04/21 12:27:56;;;;;;;19.77;17.88;;;19.10;99.90;;;;;;5051045;28;20033;-78
2023/04/21 12:30:22;;;;;;;20.52;18.38;;;19.30;99.40;;;;;;5034457;28;20120;-78
2023/04/21 12:32:48;;;;;;;20.65;18.52;;;19.50;90.60;;;;;;5051811;28;20049;-78
2023/04/21 12:35:24;;;;;;;20.58;18.52;;;19.50;92.20;;;;;;5035233;28;20480;-78
2023/04/21 12:37:56;;;;;;;19.88;17.88;;;19.70;91.80;;;;;;5052214;28;20404;-78
2023/04/21 12:40:24;;;;;;;20.85;18.90;;;19.80;88.20;;;;;;5051527;28;20041;-78
2023/04/21 12:42:58;;;;;;;20.40;18.40;;;19.80;92.00;;;;;;5033773;28;20041;-78
2023/04/21 12:45:25;;;;;;;20.50;18.40;;;19.80;91.40;;;;;;5051274;28;20029;-78
2023/04/21 12:47:54;;;;;;;20.13;18.08;;;19.70;90.10;;;;;;5051983;28;20063;-77
2023/04/21 12:50:22;;;;;;;21.08;18.92;;;19.50;89.80;;;;;;5035069;28;20477;-78
2023/04/21 12:53:03;;;;;;;20.65;18.70;;;19.40;91.30;;;;;;5051772;28;20037;-78
2023/04/21 12:55:42;;;;;;;20.23;17.92;;;19.70;93.50;;;;;;5043137;28;20485;-77
2023/04/21 12:58:36;;;;;;;19.98;17.98;;;20.60;91.10;;;;;;5034845;28;20475;-78
2023/04/21 13:01:04;;;;;;;19.55;17.80;;;21.20;83.10;;;;;;5033778;28;20045;-78
2023/04/21 13:03:41;;;;;;;17.95;16.25;;;21.00;79.00;;;;;;5051158;28;20052;-78
2023/04/21 13:06:13;;;;;;;19.70;17.80;;;20.80;76.20;;;;;;5034611;28;20049;-78
2023/04/21 13:08:56;;;;;;;18.17;16.35;;;20.60;76.20;;;;;;5034604;28;20068;-78
2023/04/21 13:11:28;;;;;;;18.17;16.40;;;20.50;75.10;;;;;;5034523;28;20123;-78
2023/04/21 13:14:09;;;;;;;18.23;16.52;;;20.50;73.30;;;;;;5052066;28;20095;-78